Mr Lloyd — WDB9843 — position and weather

sailwx.info

Track history (hours):
 
Tides and Currents Weather Stations Pressure Air Temp Water Temp Dewpoint Dewpoint Depression Visibility Wind Speed Wind Dir Waves Ship Positions

Mr Lloyd

More information available from US FCC via Universal Licensing System and Coast Guard Vessel Documentation Center.

Last reported at 2014-Jul-22 03:05 UTC. Time now 2014-Jul-23 07:52 UTC.
Position N 29°23' W 091°22'.

Length 48 m; draft 2.5 m.

Type: Passenger vessel. MMSI: 366983730.

Date/timePositionNaut miles runAvg speedWind from/ knotsBaromVisibWave heightAir tempDewpointWater temp
2014-Jul-22 03:05N 29°23' W 091°22'1018.1
2014-Jul-22 02:33N 29°31' W 091°16'1110.9
2014-Jul-22 01:34N 29°41' W 091°11'0 0.2
2014-Jul-22 00:34N 29°41' W 091°11'0 0.0
2014-Jul-21 23:33N 29°41' W 091°11'0 0.0
2014-Jul-21 22:34N 29°41' W 091°11'0 0.0
2014-Jul-21 21:33N 29°41' W 091°11'0 0.0
2014-Jul-21 20:34N 29°41' W 091°11'0 0.0
2014-Jul-21 20:18N 29°41' W 091°11'0 0.0
2014-Jul-21 19:34N 29°41' W 091°11'0 0.0
2014-Jul-21 18:34N 29°41' W 091°11'2 1.7
2014-Jul-21 17:34N 29°41' W 091°13'1010.2
2014-Jul-21 16:33N 29°31' W 091°16'6 0.7
2014-Jul-21 07:28N 29°26' W 091°20'1314.5
2014-Jul-21 06:34N 29°38' W 091°15'4 4.4
2014-Jul-21 05:34N 29°41' W 091°11'0 0.0
2014-Jul-21 04:33N 29°41' W 091°11'0 0.0
2014-Jul-21 03:33N 29°41' W 091°11'0 0.0
2014-Jul-21 02:33N 29°41' W 091°11'2 1.6
2014-Jul-21 01:33N 29°42' W 091°13'0 0.0
2014-Jul-21 00:33N 29°42' W 091°13'0 0.0
2014-Jul-20 23:33N 29°42' W 091°13'0 0.0
2014-Jul-20 22:33N 29°42' W 091°13'0 0.0
2014-Jul-20 21:33N 29°42' W 091°13'0 0.0
2014-Jul-20 20:33N 29°42' W 091°13'0 0.0
2014-Jul-20 19:33N 29°42' W 091°13'0 0.0
2014-Jul-20 18:33N 29°42' W 091°13'0 0.0
2014-Jul-20 17:33N 29°42' W 091°13'2 1.6
2014-Jul-20 16:33N 29°41' W 091°11'0 0.0
2014-Jul-20 15:33N 29°41' W 091°11'6 5.6
2014-Jul-20 14:33N 29°37' W 091°15'1313.1
2014-Jul-20 13:33N 29°25' W 091°21'1 0.0
2014-Jul-19 22:33N 29°25' W 091°21'1615.6
2014-Jul-19 21:34N 29°40' W 091°14'3 3.1
2014-Jul-19 20:33N 29°41' W 091°11'0 0.0
2014-Jul-19 19:33N 29°41' W 091°11'0 0.0
2014-Jul-19 18:33N 29°41' W 091°11'6 5.6
2014-Jul-19 17:33N 29°37' W 091°15'1211.6
2014-Jul-19 16:32N 29°26' W 091°20'10 0.2
2014-Jul-17 15:33N 29°34' W 091°14'7 7.4
2014-Jul-17 14:34N 29°41' W 091°11'5 5.3
2014-Jul-17 13:33N 29°37' W 091°15'4 4.1
2014-Jul-17 12:33N 29°41' W 091°13'2 1.6
2014-Jul-17 11:33N 29°41' W 091°11'0 0.0
2014-Jul-17 10:33N 29°41' W 091°11'0 0.0
2014-Jul-17 09:33N 29°41' W 091°11'2 1.7
2014-Jul-17 08:33N 29°41' W 091°13'10 9.5
2014-Jul-17 07:33N 29°32' W 091°16'1616.3
2014-Jul-17 06:33N 29°18' W 091°27'9 0.3
2014-Jul-16 02:09N 29°25' W 091°20'814.1
2014-Jul-16 01:33N 29°33' W 091°16'10 9.5
2014-Jul-16 00:33N 29°41' W 091°11'6 6.1
2014-Jul-15 23:33N 29°36' W 091°14'6 6.1
2014-Jul-15 22:33N 29°41' W 091°11'0 0.0
2014-Jul-15 21:34N 29°41' W 091°11'0 0.0
2014-Jul-15 20:33N 29°41' W 091°11'2 1.6
2014-Jul-15 19:34N 29°42' W 091°13'0 0.0
2014-Jul-15 18:33N 29°42' W 091°13'1 0.7
2014-Jul-15 17:34N 29°41' W 091°13'1 1.2
2014-Jul-15 16:34N 29°41' W 091°11'0 0.0
2014-Jul-15 15:34N 29°41' W 091°11'0 0.0
2014-Jul-15 14:33N 29°41' W 091°11'0 0.0
2014-Jul-15 13:33N 29°41' W 091°11'6 6.5
2014-Jul-15 12:34N 29°35' W 091°14'1615.7
2014-Jul-15 11:34N 29°22' W 091°23'2 0.1
2014-Jul-14 08:03N 29°23' W 091°22'917.8
2014-Jul-14 07:33N 29°30' W 091°16'1211.7
2014-Jul-14 06:33N 29°41' W 091°11'0 0.2
2014-Jul-14 05:33N 29°41' W 091°11'0 0.0
2014-Jul-14 04:33N 29°41' W 091°11'0 0.0
2014-Jul-14 03:33N 29°41' W 091°11'3 2.8
2014-Jul-14 02:33N 29°40' W 091°14'1413.9
2014-Jul-14 01:33N 29°27' W 091°19'1 0.0
2014-Jul-12 17:04N 29°26' W 091°20'918.6
2014-Jul-12 16:34N 29°34' W 091°14'8 7.8
2014-Jul-12 15:33N 29°41' W 091°11'0 0.0
2014-Jul-12 14:33N 29°41' W 091°11'0 0.0
2014-Jul-12 13:33N 29°41' W 091°11'0 0.0
2014-Jul-12 12:33N 29°41' W 091°11'0 0.0
2014-Jul-12 11:33N 29°41' W 091°11'0 0.0
2014-Jul-12 10:33N 29°41' W 091°11'1 0.9
2014-Jul-12 09:33N 29°41' W 091°12'0 0.0
2014-Jul-12 08:33N 29°41' W 091°12'1 0.9
2014-Jul-12 07:33N 29°41' W 091°11'0 0.0
2014-Jul-12 06:33N 29°41' W 091°11'0 0.0
2014-Jul-12 05:33N 29°41' W 091°11'2 2.1
2014-Jul-12 04:33N 29°40' W 091°14'10 9.7
2014-Jul-12 03:33N 29°31' W 091°16'  
Track history (hours):
 
Tides and Currents Weather Stations Pressure Air Temp Water Temp Dewpoint Dewpoint Depression Visibility Wind Speed Wind Dir Waves Ship Positions

Mr Lloyd

More information available from US FCC via Universal Licensing System and Coast Guard Vessel Documentation Center.

Last reported at 2014-Jul-22 03:05 UTC. Time now 2014-Jul-23 07:52 UTC.
Position N 29°23' W 091°22'.

Length 48 m; draft 2.5 m.

Type: Passenger vessel. MMSI: 366983730.

Date/timePositionNaut miles runAvg speedWind from/ knotsBaromVisibWave heightAir tempDewpointWater temp
2014-Jul-22 03:05N 29°23' W 091°22'1018.1
2014-Jul-22 02:33N 29°31' W 091°16'1110.9
2014-Jul-22 01:34N 29°41' W 091°11'0 0.2
2014-Jul-22 00:34N 29°41' W 091°11'0 0.0
2014-Jul-21 23:33N 29°41' W 091°11'0 0.0
2014-Jul-21 22:34N 29°41' W 091°11'0 0.0
2014-Jul-21 21:33N 29°41' W 091°11'0 0.0
2014-Jul-21 20:34N 29°41' W 091°11'0 0.0
2014-Jul-21 20:18N 29°41' W 091°11'0 0.0
2014-Jul-21 19:34N 29°41' W 091°11'0 0.0
2014-Jul-21 18:34N 29°41' W 091°11'2 1.7
2014-Jul-21 17:34N 29°41' W 091°13'1010.2
2014-Jul-21 16:33N 29°31' W 091°16'6 0.7
2014-Jul-21 07:28N 29°26' W 091°20'1314.5
2014-Jul-21 06:34N 29°38' W 091°15'4 4.4
2014-Jul-21 05:34N 29°41' W 091°11'0 0.0
2014-Jul-21 04:33N 29°41' W 091°11'0 0.0
2014-Jul-21 03:33N 29°41' W 091°11'0 0.0
2014-Jul-21 02:33N 29°41' W 091°11'2 1.6
2014-Jul-21 01:33N 29°42' W 091°13'0 0.0
2014-Jul-21 00:33N 29°42' W 091°13'0 0.0
2014-Jul-20 23:33N 29°42' W 091°13'0 0.0
2014-Jul-20 22:33N 29°42' W 091°13'0 0.0
2014-Jul-20 21:33N 29°42' W 091°13'0 0.0
2014-Jul-20 20:33N 29°42' W 091°13'0 0.0
2014-Jul-20 19:33N 29°42' W 091°13'0 0.0
2014-Jul-20 18:33N 29°42' W 091°13'0 0.0
2014-Jul-20 17:33N 29°42' W 091°13'2 1.6
2014-Jul-20 16:33N 29°41' W 091°11'0 0.0
2014-Jul-20 15:33N 29°41' W 091°11'6 5.6
2014-Jul-20 14:33N 29°37' W 091°15'1313.1
2014-Jul-20 13:33N 29°25' W 091°21'1 0.0
2014-Jul-19 22:33N 29°25' W 091°21'1615.6
2014-Jul-19 21:34N 29°40' W 091°14'3 3.1
2014-Jul-19 20:33N 29°41' W 091°11'0 0.0
2014-Jul-19 19:33N 29°41' W 091°11'0 0.0
2014-Jul-19 18:33N 29°41' W 091°11'6 5.6
2014-Jul-19 17:33N 29°37' W 091°15'1211.6
2014-Jul-19 16:32N 29°26' W 091°20'10 0.2
2014-Jul-17 15:33N 29°34' W 091°14'7 7.4
2014-Jul-17 14:34N 29°41' W 091°11'5 5.3
2014-Jul-17 13:33N 29°37' W 091°15'4 4.1
2014-Jul-17 12:33N 29°41' W 091°13'2 1.6
2014-Jul-17 11:33N 29°41' W 091°11'0 0.0
2014-Jul-17 10:33N 29°41' W 091°11'0 0.0
2014-Jul-17 09:33N 29°41' W 091°11'2 1.7
2014-Jul-17 08:33N 29°41' W 091°13'10 9.5
2014-Jul-17 07:33N 29°32' W 091°16'1616.3
2014-Jul-17 06:33N 29°18' W 091°27'9 0.3
2014-Jul-16 02:09N 29°25' W 091°20'814.1
2014-Jul-16 01:33N 29°33' W 091°16'10 9.5
2014-Jul-16 00:33N 29°41' W 091°11'6 6.1
2014-Jul-15 23:33N 29°36' W 091°14'6 6.1
2014-Jul-15 22:33N 29°41' W 091°11'0 0.0
2014-Jul-15 21:34N 29°41' W 091°11'0 0.0
2014-Jul-15 20:33N 29°41' W 091°11'2 1.6
2014-Jul-15 19:34N 29°42' W 091°13'0 0.0
2014-Jul-15 18:33N 29°42' W 091°13'1 0.7
2014-Jul-15 17:34N 29°41' W 091°13'1 1.2
2014-Jul-15 16:34N 29°41' W 091°11'0 0.0
2014-Jul-15 15:34N 29°41' W 091°11'0 0.0
2014-Jul-15 14:33N 29°41' W 091°11'0 0.0
2014-Jul-15 13:33N 29°41' W 091°11'6 6.5
2014-Jul-15 12:34N 29°35' W 091°14'1615.7
2014-Jul-15 11:34N 29°22' W 091°23'2 0.1
2014-Jul-14 08:03N 29°23' W 091°22'917.8
2014-Jul-14 07:33N 29°30' W 091°16'1211.7
2014-Jul-14 06:33N 29°41' W 091°11'0 0.2
2014-Jul-14 05:33N 29°41' W 091°11'0 0.0
2014-Jul-14 04:33N 29°41' W 091°11'0 0.0
2014-Jul-14 03:33N 29°41' W 091°11'3 2.8
2014-Jul-14 02:33N 29°40' W 091°14'1413.9
2014-Jul-14 01:33N 29°27' W 091°19'1 0.0
2014-Jul-12 17:04N 29°26' W 091°20'918.6
2014-Jul-12 16:34N 29°34' W 091°14'8 7.8
2014-Jul-12 15:33N 29°41' W 091°11'0 0.0
2014-Jul-12 14:33N 29°41' W 091°11'0 0.0
2014-Jul-12 13:33N 29°41' W 091°11'0 0.0
2014-Jul-12 12:33N 29°41' W 091°11'0 0.0
2014-Jul-12 11:33N 29°41' W 091°11'0 0.0
2014-Jul-12 10:33N 29°41' W 091°11'1 0.9
2014-Jul-12 09:33N 29°41' W 091°12'0 0.0
2014-Jul-12 08:33N 29°41' W 091°12'1 0.9
2014-Jul-12 07:33N 29°41' W 091°11'0 0.0
2014-Jul-12 06:33N 29°41' W 091°11'0 0.0
2014-Jul-12 05:33N 29°41' W 091°11'2 2.1
2014-Jul-12 04:33N 29°40' W 091°14'10 9.7
2014-Jul-12 03:33N 29°31' W 091°16'  

Dump ship's entire track history